• Join FlightAware (Why Join?)
  • Login
  • US Flag 
06:26PM EDT


 

Airport Tracker/Info


-or-


 

Live Flight TrackerFlight Track Log ✈ AAL963 ✈ 27-Sep-2013 ✈ KDFW - SBGR / GRU

Flight Track Log - Related Links

Times and Time Zones

All times are in EDT time to prevent confusion due to time zone crossing. See the AAL963 flight status page for this flight to view local times or setup timezone preferences in your user account.

Time Position Orientation Groundspeed Altitude Reporting Facility
EDT Latitude Longitude Course Direction KTS MPH feet Rate Location/Type
09:11PM 32.8750 -97.0520 185° South 186 214 1,500  Level FlightAware
09:12PM 32.8560 -97.0570 192° South 194 223 2,400 1,620 Climbing FlightAware
09:12PM 32.8370 -97.0640 197° South 224 258 2,700 1,380 Climbing FlightAware
09:12PM 32.8170 -97.0710 196° South 237 273 3,300 2,400 Climbing FlightAware
09:13PM 32.7950 -97.0780 195° South 236 272 4,300 2,880 Climbing FlightAware
09:13PM 32.7740 -97.0810 187° South 246 283 5,200 3,120 Climbing FlightAware
09:13PM 32.7550 -97.0800 177° South 247 284 6,300 3,300 Climbing FlightAware
09:14PM 32.7230 -97.0720 168° South 265 305 7,700 3,060 Climbing FlightAware
09:14PM 32.6970 -97.0600 159° South 277 319 8,700 2,520 Climbing FlightAware
09:14PM 32.6780 -97.0500 156° South 288 331 9,300 2,400 Climbing FlightAware
09:15PM 32.6430 -97.0290 153° Southeast 298 343 10,600 1,560 Climbing FlightAware
09:15PM 32.5900 -96.9970 153° Southeast 359 413 11,100 1,620 Climbing FlightAware
09:16PM 32.5340 -96.9640 154° Southeast 376 433 12,600 2,520 Climbing FlightAware
09:17PM 32.4800 -96.9310 153° Southeast 388 447 14,100 2,640 Climbing FlightAware
09:17PM 32.4290 -96.9010 154° Southeast 397 457 15,500 2,640 Climbing FlightAware
09:18PM 32.3650 -96.8630 153° Southeast 403 464 17,200 2,460 Climbing FlightAware
09:18PM 32.3020 -96.8260 154° Southeast 410 472 18,600 2,280 Climbing FlightAware
09:19PM 32.2420 -96.7990 159° South 413 475 19,900 2,040 Climbing FlightAware
09:19PM 32.1830 -96.7770 162° South 422 486 20,900 1,740 Climbing FlightAware
09:20PM 32.1070 -96.7480 162° South 431 496 22,000 1,620 Climbing FlightAware
09:21PM 32.0470 -96.7250 162° South 436 502 22,900 1,560 Climbing FlightAware
09:21PM 31.9750 -96.6980 162° South 440 506 23,800 1,260 Climbing FlightAware
09:22PM 31.9140 -96.6750 162° South 448 516 24,400 1,080 Climbing FlightAware
09:22PM 31.8490 -96.6500 162° South 459 528 25,000 1,080 Climbing FlightAware
09:23PM 31.7720 -96.6170 160° South 467 537 25,700 1,080 Climbing FlightAware
09:24PM 31.6960 -96.5860 161° South 474 545 26,400 1,260 Climbing FlightAware
09:24PM 31.6180 -96.5540 161° South 475 547 27,300 1,200 Climbing FlightAware
09:25PM 31.5520 -96.5270 161° South 482 555 27,800 960 Climbing FlightAware
09:25PM 31.4790 -96.4980 161° South 485 558 28,400 1,080 Climbing FlightAware
09:26PM 31.4010 -96.4700 163° South 488 562 29,100 960 Climbing FlightAware
09:27PM 31.2510 -96.4140 162° South 497 572 30,100 1,020 Climbing FlightAware
09:28PM 31.1880 -96.3850 159° South 495 570 30,800 1,080 Climbing FlightAware
09:28PM 31.1530 -96.3550 144° Southeast 497 572 31,000 300 Climbing FlightAware
09:28PM 31.1260 -96.3200 132° Southeast 497 572 31,000  Level FlightAware
09:29PM 31.0840 -96.2520 126° Southeast 496 571 31,000  Level FlightAware
09:29PM 31.0350 -96.1710 125° Southeast 496 571 31,000  Level FlightAware
09:30PM 30.9820 -96.0850 126° Southeast 495 570 31,000  Level FlightAware
09:31PM 30.9330 -96.0050 126° Southeast 495 570 31,000  Level FlightAware
09:31PM 30.8860 -95.9290 126° Southeast 495 570 31,000  Level FlightAware
09:32PM 30.8440 -95.8610 126° Southeast 495 570 31,000  Level FlightAware
09:32PM 30.7930 -95.7790 126° Southeast 495 570 31,000  Level FlightAware
09:33PM 30.7420 -95.6970 126° Southeast 496 571 31,000  Level FlightAware
09:34PM 30.6870 -95.6090 126° Southeast 497 572 31,000  Level FlightAware
09:34PM 30.6450 -95.5420 126° Southeast 497 572 31,000  Level FlightAware
09:35PM 30.5970 -95.4650 126° Southeast 497 572 31,000  Level FlightAware
09:35PM 30.5470 -95.3860 126° Southeast 498 573 31,000  Level FlightAware
09:36PM 30.5030 -95.3160 126° Southeast 498 573 31,000  Level FlightAware
09:37PM 30.4030 -95.1570 126° Southeast 497 572 31,000  Level FlightAware
09:38PM 30.3600 -95.0880 126° Southeast 497 572 31,000  Level FlightAware
09:38PM 30.3120 -95.0130 127° Southeast 497 572 31,000  Level FlightAware
09:39PM 30.2610 -94.9330 126° Southeast 497 572 31,000  Level FlightAware
09:40PM 30.2070 -94.8600 131° Southeast 497 572 31,000  Level FlightAware
09:40PM 30.1556 -94.8060 138° Southeast 498 573 31,000  Level FlightAware ADS-B
09:40PM 30.1086 -94.7596 139° Southeast 499 574 31,000  Level FlightAware ADS-B
09:41PM 30.0300 -94.6820 140° Southeast 499 574 31,000  Level FlightAware
09:42PM 29.9630 -94.6160 140° Southeast 498 573 31,000  Level FlightAware
09:42PM 29.9090 -94.5620 139° Southeast 498 573 31,000  Level FlightAware
09:43PM 29.8430 -94.4970 139° Southeast 498 573 31,000  Level FlightAware
09:43PM 29.8236 -94.4786 140° Southeast 499 574 31,000  Level FlightAware ADS-B
09:44PM 29.7210 -94.3780 140° Southeast 498 573 31,000  Level FlightAware
09:45PM 29.6471 -94.3053 139° Southeast 498 573 31,000  Level FlightAware ADS-B
09:45PM 29.5950 -94.2550 140° Southeast 497 572 31,000  Level FlightAware
09:46PM 29.5448 -94.2052 139° Southeast 497 572 31,000  Level FlightAware ADS-B
09:46PM 29.4810 -94.1430 140° Southeast 497 572 31,000  Level FlightAware
09:47PM 29.4250 -94.0870 139° Southeast 497 572 31,000  Level FlightAware
09:48PM 29.3720 -94.0340 139° Southeast 497 572 31,000  Level FlightAware
09:48PM 29.3180 -93.9800 139° Southeast 497 572 31,000  Level FlightAware
09:49PM 29.2650 -93.9270 139° Southeast 497 572 31,000  Level FlightAware
09:49PM 29.2120 -93.8740 139° Southeast 497 572 31,000  Level FlightAware
09:50PM 29.1580 -93.8210 139° Southeast 497 572 31,000  Level FlightAware
09:51PM 29.1050 -93.7680 139° Southeast 497 572 31,000  Level FlightAware
09:51PM 29.0520 -93.7150 139° Southeast 497 572 31,000  Level FlightAware
09:52PM 28.9990 -93.6630 139° Southeast 497 572 31,000  Level FlightAware
09:52PM 28.9460 -93.6100 139° Southeast 497 572 31,000  Level FlightAware
09:53PM 28.8930 -93.5570 139° Southeast 497 572 31,000  Level FlightAware
09:54PM 28.8380 -93.5030 139° Southeast 497 572 31,000  Level FlightAware
09:54PM 28.7850 -93.4500 139° Southeast 497 572 31,000  Level FlightAware
09:55PM 28.7320 -93.3980 139° Southeast 497 572 31,000  Level FlightAware
09:55PM 28.6780 -93.3440 139° Southeast 497 572 31,000  Level FlightAware
09:56PM 28.6270 -93.2940 139° Southeast 497 572 31,000  Level FlightAware
09:57PM 28.3642 -93.0625 139° Southeast 495 570 31,000 -60 Level Houston Center
09:58PM 28.2581 -92.9611 140° Southeast 498 573 30,900  Descending Houston Center
09:59PM 28.1517 -92.8603 140° Southeast 499 574 31,000  Climbing Houston Center
10:00PM 28.0458 -92.7589 140° Southeast 498 573 30,900  Descending Houston Center
10:01PM 27.9400 -92.6608 141° Southeast 495 570 31,000  Climbing Houston Center
10:02PM 27.8317 -92.5711 144° Southeast 491 565 30,900  Descending Houston Center
10:03PM 27.7272 -92.4625 137° Southeast 499 574 31,000  Climbing Houston Center
10:04PM 27.6200 -92.3625 140° Southeast 499 574 30,900  Descending Houston Center
10:05PM 27.5131 -92.2631 140° Southeast 498 573 31,000  Climbing Houston Center
10:06PM 27.3844 -92.1442 141° Southeast 498 573 31,000  Level Houston Center
10:07PM 27.2769 -92.0447 141° Southeast 500 575 31,000  Level Houston Center
10:08PM 27.1697 -91.9444 140° Southeast 501 577 31,000  Level Houston Center
10:10PM 27.0399 -91.8316 144° Southeast  Level FlightAware Approximate
10:17PM 26.2778 -91.2263 145° Southeast  Level FlightAware Approximate
10:18PM 26.1688 -91.1404 145° Southeast  Level FlightAware Approximate
10:19PM 26.0597 -91.0547 145° Southeast  Level FlightAware Approximate
10:20PM 25.9505 -90.9691 145° Southeast  Level FlightAware Approximate
10:21PM 25.8414 -90.8837 145° Southeast  Level FlightAware Approximate
10:22PM 25.7321 -90.7985 145° Southeast  Level FlightAware Approximate
10:23PM 25.6229 -90.7134 145° Southeast  Level FlightAware Approximate
10:24PM 25.5135 -90.6284 145° Southeast  Level FlightAware Approximate
10:25PM 25.4041 -90.5436 145° Southeast  Level FlightAware Approximate
10:26PM 25.2947 -90.4590 145° Southeast  Level FlightAware Approximate
10:27PM 25.1852 -90.3745 145° Southeast  Level FlightAware Approximate
10:28PM 25.0757 -90.2902 145° Southeast  Level FlightAware Approximate
10:29PM 24.9661 -90.2060 145° Southeast  Level FlightAware Approximate
10:30PM 24.8565 -90.1220 145° Southeast  Level FlightAware Approximate
10:31PM 24.7468 -90.0381 145° Southeast  Level FlightAware Approximate
10:32PM 24.6371 -89.9544 145° Southeast  Level FlightAware Approximate
10:33PM 24.5274 -89.8708 145° Southeast  Level FlightAware Approximate
10:34PM 24.4187 -89.7859 146° Southeast  Level FlightAware Approximate
10:35PM 24.3077 -89.7046 146° Southeast  Level FlightAware Approximate
10:36PM 24.1965 -89.6235 146° Southeast  Level FlightAware Approximate
10:37PM 24.0854 -89.5424 146° Southeast  Level FlightAware Approximate
10:38PM 23.9753 -89.4598 145° Southeast  Level FlightAware Approximate
10:39PM 23.8656 -89.3765 145° Southeast  Level FlightAware Approximate
10:40PM 23.7558 -89.2934 145° Southeast  Level FlightAware Approximate
10:40PM 23.3750 -89.2490 145° Southeast 509 586 31,000  Level FlightAware
10:41PM 23.6461 -89.2104 145° Southeast  Level FlightAware Approximate
10:41PM 23.3100 -89.1820 137° Southeast 509 586 31,000  Level FlightAware
10:42PM 23.2590 -89.1290 136° Southeast 507 583 31,000  Level FlightAware
10:42PM 23.1890 -89.0570 137° Southeast 506 582 31,000  Level FlightAware
10:43PM 23.1330 -88.9990 136° Southeast 507 583 31,000  Level FlightAware
10:43PM 23.0730 -88.9370 136° Southeast 507 583 31,000  Level FlightAware
10:44PM 23.0070 -88.8690 137° Southeast 505 581 31,000  Level FlightAware
10:45PM 22.9420 -88.8020 136° Southeast 505 581 31,000  Level FlightAware
10:45PM 22.8830 -88.7420 137° Southeast 505 581 31,000  Level FlightAware
10:46PM 22.8210 -88.6770 136° Southeast 505 581 31,000  Level FlightAware
10:47PM 22.7490 -88.6040 137° Southeast 505 581 31,000  Level FlightAware
10:47PM 22.6960 -88.5500 137° Southeast 505 581 31,000  Level FlightAware
10:48PM 22.6420 -88.4950 137° Southeast 505 581 31,000  Level FlightAware
10:48PM 22.5710 -88.4230 137° Southeast 505 581 31,000  Level FlightAware
10:49PM 22.5160 -88.3670 137° Southeast 506 582 31,000  Level FlightAware
10:49PM 22.4520 -88.3020 137° Southeast 507 583 31,000  Level FlightAware
10:50PM 22.3970 -88.2440 136° Southeast 507 583 31,000  Level FlightAware
10:51PM 22.3450 -88.1910 137° Southeast 507 583 31,000  Level FlightAware
10:51PM 22.2660 -88.1130 138° Southeast 507 583 31,000  Level FlightAware
10:52PM 22.2120 -88.0570 136° Southeast 507 583 31,000  Level FlightAware
10:52PM 22.1600 -88.0030 136° Southeast 507 583 31,000  Level FlightAware
10:53PM 22.1080 -87.9490 136° Southeast 507 583 31,000  Level FlightAware
10:54PM 22.0550 -87.8940 136° Southeast 507 583 31,000  Level FlightAware
10:54PM 22.0040 -87.8400 136° Southeast 507 583 31,000  Level FlightAware
10:55PM 21.8900 -87.7340 139° Southeast 503 579 31,000  Level FlightAware
10:55PM 21.8420 -87.6850 137° Southeast 503 579 31,000  Level FlightAware
10:56PM 21.7790 -87.6220 137° Southeast 503 579 31,000  Level FlightAware
10:57PM 21.7110 -87.5550 138° Southeast 503 579 31,000  Level FlightAware
10:57PM 21.6510 -87.4940 137° Southeast 503 579 31,000  Level FlightAware
10:58PM 21.5970 -87.4400 137° Southeast 504 580 31,000  Level FlightAware
10:58PM 21.5290 -87.3730 137° Southeast 504 580 31,000  Level FlightAware
10:59PM 21.4760 -87.3200 137° Southeast 504 580 31,000  Level FlightAware
11:00PM 21.4150 -87.2590 137° Southeast 504 580 31,000  Level FlightAware
11:00PM 21.3520 -87.1970 137° Southeast 505 581 31,000  Level FlightAware
11:01PM 21.2900 -87.1350 137° Southeast 505 581 31,000  Level FlightAware
11:01PM 21.2350 -87.0800 137° Southeast 503 579 31,000  Level FlightAware
11:02PM 21.1810 -87.0270 138° Southeast 503 579 31,000  Level FlightAware
11:02PM 21.1150 -86.9620 137° Southeast 504 580 31,000  Level FlightAware
11:03PM 21.0540 -86.9010 137° Southeast 505 581 31,000  Level FlightAware
11:04PM 20.9920 -86.8400 137° Southeast 504 580 31,000  Level FlightAware
11:04PM 20.9370 -86.7860 137° Southeast 503 579 31,000  Level FlightAware
11:05PM 20.8750 -86.7250 137° Southeast 504 580 31,000  Level FlightAware
11:05PM 20.8170 -86.6670 137° Southeast 503 579 31,000  Level FlightAware
11:06PM 20.7500 -86.6020 138° Southeast 503 579 31,000  Level FlightAware
11:07PM 20.6960 -86.5490 137° Southeast 503 579 31,000  Level FlightAware
11:07PM 20.6340 -86.4880 137° Southeast 503 579 31,000  Level FlightAware
11:08PM 20.5770 -86.4320 137° Southeast 505 581 31,000  Level FlightAware
11:08PM 20.5190 -86.3760 138° Southeast 504 580 31,000  Level FlightAware
11:09PM 20.4570 -86.3150 137° Southeast 505 581 31,000  Level FlightAware
11:09PM 20.4040 -86.2620 137° Southeast 505 581 31,000  Level FlightAware
11:10PM 20.3520 -86.2100 137° Southeast 505 581 31,000  Level FlightAware
11:11PM 20.2820 -86.1410 137° Southeast 505 581 31,000  Level FlightAware
11:11PM 20.1910 -86.0560 139° Southeast 503 579 31,000  Level FlightAware
11:12PM 20.1270 -85.9940 138° Southeast 503 579 31,000  Level FlightAware
11:13PM 20.0720 -85.9390 137° Southeast 503 579 31,000  Level FlightAware
11:13PM 20.0070 -85.8770 138° Southeast 503 579 31,000  Level FlightAware
11:14PM 19.9430 -85.8170 139° Southeast 502 578 31,000  Level FlightAware
11:14PM 19.8820 -85.7590 138° Southeast 502 578 31,000  Level FlightAware
11:15PM 19.8250 -85.7050 138° Southeast 503 579 31,000  Level FlightAware
11:16PM 19.7630 -85.6470 139° Southeast 502 578 31,000  Level FlightAware
11:16PM 19.6980 -85.5860 139° Southeast 502 578 31,000  Level FlightAware
11:17PM 19.6530 -85.5430 138° Southeast 502 578 31,000  Level FlightAware
11:17PM 19.5790 -85.4740 139° Southeast 502 578 31,000  Level FlightAware
11:18PM 19.5200 -85.4190 139° Southeast 503 579 31,000  Level FlightAware
11:18PM 19.4560 -85.3590 139° Southeast 503 579 31,000  Level FlightAware
11:19PM 19.3970 -85.3040 139° Southeast 503 579 31,000  Level FlightAware
11:20PM 19.3460 -85.2560 138° Southeast 502 578 31,000  Level FlightAware
11:20PM 19.2700 -85.1850 139° Southeast 503 579 31,000  Level FlightAware
11:21PM 19.2170 -85.1340 138° Southeast 503 579 31,000  Level FlightAware
11:22PM 19.1640 -85.0840 138° Southeast 503 579 31,000  Level FlightAware
11:22PM 19.1100 -85.0320 138° Southeast 503 579 31,000  Level FlightAware
11:23PM 19.0570 -84.9820 138° Southeast 503 579 31,000  Level FlightAware
11:23PM 19.0040 -84.9310 138° Southeast 503 579 31,000  Level FlightAware
11:24PM 18.9500 -84.8790 138° Southeast 503 579 31,000  Level FlightAware
11:25PM 18.8950 -84.8280 139° Southeast 503 579 31,000  Level FlightAware
11:25PM 18.8420 -84.7770 138° Southeast 503 579 31,000  Level FlightAware
11:26PM 18.7890 -84.7270 138° Southeast 503 579 31,000  Level FlightAware
11:26PM 18.7360 -84.6770 138° Southeast 503 579 31,000  Level FlightAware
11:27PM 18.6840 -84.6260 137° Southeast 503 579 31,000  Level FlightAware
11:28PM 18.6310 -84.5760 138° Southeast 503 579 31,000  Level FlightAware
11:28PM 18.5780 -84.5260 138° Southeast 503 579 31,000  Level FlightAware
11:29PM 18.5250 -84.4760 138° Southeast 503 579 31,000  Level FlightAware
11:29PM 18.4720 -84.4250 138° Southeast 503 579 31,000  Level FlightAware
11:32PM 18.3185 -84.1751 125° Southeast  Level FlightAware Approximate
11:33PM 18.2425 -84.0595 125° Southeast  Level FlightAware Approximate
11:34PM 18.1664 -83.9440 125° Southeast  Level FlightAware Approximate
11:35PM 18.0903 -83.8286 125° Southeast  Level FlightAware Approximate
11:36PM 18.0140 -83.7133 125° Southeast  Level FlightAware Approximate
11:37PM 17.9347 -83.6009 135° Southeast  Level FlightAware Approximate
11:38PM 17.8395 -83.5025 135° Southeast  Level FlightAware Approximate
11:39PM 17.7442 -83.4043 136° Southeast  Level FlightAware Approximate
11:40PM 17.6488 -83.3062 136° Southeast  Level FlightAware Approximate
11:41PM 17.5535 -83.2082 136° Southeast  Level FlightAware Approximate
11:42PM 17.4580 -83.1103 136° Southeast  Level FlightAware Approximate
11:43PM 17.3624 -83.0127 139° Southeast  Level FlightAware Approximate
11:44PM 17.2618 -82.9208 139° Southeast  Level FlightAware Approximate
11:45PM 17.1612 -82.8289 139° Southeast  Level FlightAware Approximate
11:46PM 17.0605 -82.7371 139° Southeast  Level FlightAware Approximate
11:47PM 16.9598 -82.6454 139° Southeast  Level FlightAware Approximate
11:48PM 16.8591 -82.5539 139° Southeast  Level FlightAware Approximate
11:49PM 16.7583 -82.4624 139° Southeast  Level FlightAware Approximate
11:50PM 16.6575 -82.3710 139° Southeast  Level FlightAware Approximate
11:51PM 16.5567 -82.2797 139° Southeast  Level FlightAware Approximate
11:52PM 16.4557 -82.1885 139° Southeast  Level FlightAware Approximate
11:53PM 16.3631 -82.0884 134° Southeast  Level FlightAware Approximate
11:54PM 16.2708 -81.9878 134° Southeast  Level FlightAware Approximate
11:55PM 16.1785 -81.8874 134° Southeast  Level FlightAware Approximate
11:56PM 16.0862 -81.7870 134° Southeast  Level FlightAware Approximate
11:57PM 15.9938 -81.6867 134° Southeast  Level FlightAware Approximate
11:58PM 15.9014 -81.5865 134° Southeast  Level FlightAware Approximate
11:59PM 15.8089 -81.4864 134° Southeast  Level FlightAware Approximate
12:00AM 15.7164 -81.3864 134° Southeast  Level FlightAware Approximate
12:01AM 15.6238 -81.2865 134° Southeast  Level FlightAware Approximate
12:02AM 15.5312 -81.1867 134° Southeast  Level FlightAware Approximate
12:03AM 15.4385 -81.0869 134° Southeast  Level FlightAware Approximate
12:04AM 15.3458 -80.9873 134° Southeast  Level FlightAware Approximate
12:05AM 15.2531 -80.8877 134° Southeast  Level FlightAware Approximate
12:06AM 15.1603 -80.7882 134° Southeast  Level FlightAware Approximate
12:07AM 15.0675 -80.6888 134° Southeast  Level FlightAware Approximate
12:08AM 14.9712 -80.5935 142° Southeast  Level FlightAware Approximate
12:09AM 14.8658 -80.5087 142° Southeast  Level FlightAware Approximate
12:10AM 14.7604 -80.4239 142° Southeast  Level FlightAware Approximate
12:11AM 14.6549 -80.3393 142° Southeast  Level FlightAware Approximate
12:12AM 14.5494 -80.2547 142° Southeast  Level FlightAware Approximate
12:13AM 14.4439 -80.1702 142° Southeast  Level FlightAware Approximate
12:14AM 14.3384 -80.0858 142° Southeast  Level FlightAware Approximate
12:15AM 14.2328 -80.0015 142° Southeast  Level FlightAware Approximate
12:16AM 14.1272 -79.9172 142° Southeast  Level FlightAware Approximate
12:17AM 14.0216 -79.8331 142° Southeast  Level FlightAware Approximate
12:18AM 13.9159 -79.7490 142° Southeast  Level FlightAware Approximate
12:19AM 13.8103 -79.6648 142° Southeast  Level FlightAware Approximate
12:20AM 13.7049 -79.5804 142° Southeast  Level FlightAware Approximate
12:21AM 13.5996 -79.4961 142° Southeast  Level FlightAware Approximate
12:22AM 13.4942 -79.4118 142° Southeast  Level FlightAware Approximate
12:23AM 13.3887 -79.3276 142° Southeast  Level FlightAware Approximate
12:24AM 13.2832 -79.2434 142° Southeast  Level FlightAware Approximate
12:25AM 13.1778 -79.1594 142° Southeast  Level FlightAware Approximate
12:26AM 13.0722 -79.0754 142° Southeast  Level FlightAware Approximate
12:27AM 12.9667 -78.9915 142° Southeast  Level FlightAware Approximate
12:28AM 12.8611 -78.9077 142° Southeast  Level FlightAware Approximate
12:29AM 12.7555 -78.8239 142° Southeast  Level FlightAware Approximate
12:30AM 12.6498 -78.7403 143° Southeast  Level FlightAware Approximate
12:31AM 12.5438 -78.6571 143° Southeast  Level FlightAware Approximate
12:32AM 12.4378 -78.5740 143° Southeast  Level FlightAware Approximate
12:33AM 12.3317 -78.4910 143° Southeast  Level FlightAware Approximate
12:34AM 12.2256 -78.4080 143° Southeast  Level FlightAware Approximate
12:35AM 12.1195 -78.3251 143° Southeast  Level FlightAware Approximate
12:36AM 12.0134 -78.2423 143° Southeast  Level FlightAware Approximate
12:37AM 11.9073 -78.1595 143° Southeast  Level FlightAware Approximate
12:38AM 11.8011 -78.0768 143° Southeast  Level FlightAware Approximate
12:39AM 11.6949 -77.9941 143° Southeast  Level FlightAware Approximate
12:40AM 11.5887 -77.9116 143° Southeast  Level FlightAware Approximate
12:41AM 11.4824 -77.8290 143° Southeast  Level FlightAware Approximate
12:42AM 11.3762 -77.7466 143° Southeast  Level FlightAware Approximate
12:43AM 11.2699 -77.6642 143° Southeast  Level FlightAware Approximate
12:44AM 11.1636 -77.5819 143° Southeast  Level FlightAware Approximate
12:44AM 10.9270 -77.3860 143° Southeast 487 560 33,000  Level FlightAware
12:45AM 11.0578 -77.5000 143° Southeast  Level FlightAware Approximate
12:45AM 10.8700 -77.3350 139° Southeast 499 574 33,000  Level FlightAware
12:45AM 10.8140 -77.2820 137° Southeast 493 567 33,000  Level FlightAware
12:46AM 10.7470 -77.2190 137° Southeast 493 567 33,000  Level FlightAware
12:46AM 10.6800 -77.1560 137° Southeast 558 642 33,000  Level FlightAware
12:47AM 10.6270 -77.1070 138° Southeast 497 572 33,000  Level FlightAware
12:48AM 10.5580 -77.0420 137° Southeast 491 565 33,000  Level FlightAware
12:48AM 10.4760 -76.9660 138° Southeast 420 483 33,000  Level FlightAware
12:49AM 10.3790 -76.8770 138° Southeast 496 571 33,000  Level FlightAware
12:50AM 10.3250 -76.8260 137° Southeast 495 570 33,000  Level FlightAware
12:50AM 10.2660 -76.7720 138° Southeast 496 571 33,000  Level FlightAware
12:51AM 10.2050 -76.7150 137° Southeast 496 571 33,000  Level FlightAware
12:52AM 10.1440 -76.6590 138° Southeast 489 563 33,000  Level FlightAware
12:52AM 10.0790 -76.5960 136° Southeast 489 563 33,000  Level FlightAware
12:53AM 10.0140 -76.5380 139° Southeast 490 564 33,000  Level FlightAware
12:54AM 9.9450 -76.4750 138° Southeast 491 565 33,000  Level FlightAware
12:54AM 9.8900 -76.4230 137° Southeast 490 564 33,000  Level FlightAware
12:55AM 9.8110 -76.3490 137° Southeast 491 565 33,000  Level FlightAware
12:55AM 9.7510 -76.2950 138° Southeast 495 570 33,000  Level FlightAware
12:56AM 9.6750 -76.2240 137° Southeast 497 572 33,000  Level FlightAware
12:57AM 9.6190 -76.1730 138° Southeast 498 573 33,000  Level FlightAware
12:57AM 9.5630 -76.1210 138° Southeast 497 572 33,000  Level FlightAware
12:58AM 9.5030 -76.0660 138° Southeast 498 573 33,000  Level FlightAware
12:58AM 9.4410 -76.0090 138° Southeast 498 573 33,000  Level FlightAware
12:59AM 9.3820 -75.9550 138° Southeast 496 571 33,000  Level FlightAware
01:00AM 9.3220 -75.8990 137° Southeast 495 570 33,000  Level FlightAware
01:00AM 9.2620 -75.8440 138° Southeast 495 570 33,000  Level FlightAware
01:01AM 9.1990 -75.7860 138° Southeast 495 570 33,000  Level FlightAware
01:01AM 9.1340 -75.7260 138° Southeast 496 571 33,000  Level FlightAware
01:02AM 9.0660 -75.6640 138° Southeast 495 570 33,000  Level FlightAware
01:03AM 9.0170 -75.6190 138° Southeast 495 570 33,000  Level FlightAware
01:03AM 8.9410 -75.5490 138° Southeast 496 571 33,000  Level FlightAware
01:04AM 8.8860 -75.4980 138° Southeast 497 572 33,000  Level FlightAware
01:05AM 8.8210 -75.4390 138° Southeast 494 568 33,000  Level FlightAware
01:05AM 8.7530 -75.3760 138° Southeast 493 567 33,000  Level FlightAware
01:06AM 8.6920 -75.3210 138° Southeast 492 566 33,000  Level FlightAware
01:06AM 8.6350 -75.2690 138° Southeast 492 566 33,000  Level FlightAware
01:07AM 8.5510 -75.1910 137° Southeast 493 567 33,000  Level FlightAware
01:08AM 8.4930 -75.1380 138° Southeast 492 566 33,000  Level FlightAware
01:08AM 8.4340 -75.0840 138° Southeast 492 566 33,000  Level FlightAware
01:09AM 8.3760 -75.0460 147° Southeast 490 564 33,000  Level FlightAware
01:10AM 8.2940 -75.0030 153° Southeast 487 560 33,000  Level FlightAware
01:10AM 8.2240 -74.9670 153° Southeast 488 562 33,000  Level FlightAware
01:11AM 8.1620 -74.9360 154° Southeast 488 562 33,000  Level FlightAware
01:11AM 8.0830 -74.8940 152° Southeast 487 560 33,000  Level FlightAware
01:12AM 8.0150 -74.8560 151° Southeast 486 559 33,000  Level FlightAware
01:12AM 7.9440 -74.8170 151° Southeast 488 562 33,000  Level FlightAware
01:13AM 7.8760 -74.7770 150° Southeast 490 564 33,000  Level FlightAware
01:14AM 7.8240 -74.7360 142° Southeast 492 566 33,000  Level FlightAware
01:14AM 7.7950 -74.6980 128° Southeast 497 572 33,000  Level FlightAware
01:14AM 7.7750 -74.6550 115° Southeast 501 577 33,000  Level FlightAware
01:15AM 7.7520 -74.5790 107° East 500 575 33,000  Level FlightAware
01:15AM 7.7360 -74.4970 101° East 500 575 33,000  Level FlightAware
01:16AM 7.7190 -74.4190 102° East 501 577 33,000  Level FlightAware
01:17AM 7.7020 -74.3380 102° East 503 579 33,000  Level FlightAware
01:17AM 7.6850 -74.2570 102° East 506 582 33,000  Level FlightAware
01:18AM 7.6680 -74.1770 102° East 507 583 33,000  Level FlightAware
01:18AM 7.6510 -74.0970 102° East 508 585 33,000  Level FlightAware
01:19AM 7.6350 -74.0180 102° East 503 579 33,000  Level FlightAware
01:19AM 7.6170 -73.9400 103° East 492 566 33,000  Level FlightAware
01:20AM 7.6000 -73.8600 102° East 492 566 33,000  Level FlightAware
01:21AM 7.5820 -73.7810 103° East 493 567 33,000  Level FlightAware
01:21AM 7.5640 -73.7020 103° East 495 570 33,000  Level FlightAware
01:22AM 7.5480 -73.6280 102° East 497 572 33,000  Level FlightAware
01:23AM 7.5240 -73.5210 103° East 499 574 33,000  Level FlightAware
01:23AM 7.5060 -73.4410 103° East 497 572 33,000  Level FlightAware
01:24AM 7.4880 -73.3530 102° East 496 571 33,000  Level FlightAware
01:25AM 7.4700 -73.2750 103° East 496 571 33,000  Level FlightAware
01:25AM 7.4540 -73.2060 103° East 496 571 33,000  Level FlightAware
01:26AM 7.4380 -73.1370 103° East 496 571 33,000  Level FlightAware
01:26AM 7.4220 -73.0680 103° East 496 571 33,000  Level FlightAware
01:27AM 7.4060 -72.9970 103° East 496 571 33,000  Level FlightAware
01:28AM 7.3900 -72.9260 103° East 496 571 33,000  Level FlightAware
01:28AM 7.3740 -72.8570 103° East 496 571 33,000  Level FlightAware
01:29AM 7.3580 -72.7880 103° East 496 571 33,000  Level FlightAware
01:29AM 7.3420 -72.7190 103° East 496 571 33,000  Level FlightAware
01:30AM 7.3270 -72.6500 102° East 496 571 33,000  Level FlightAware
01:31AM 7.3110 -72.5810 103° East 496 571 33,000  Level FlightAware
01:31AM 7.2950 -72.5110 103° East 496 571 33,000  Level FlightAware
01:32AM 7.2790 -72.4420 103° East 496 571 33,000  Level FlightAware
01:32AM 7.2630 -72.3730 103° East 496 571 33,000  Level FlightAware
01:33AM 7.2470 -72.3040 103° East 496 571 33,000  Level FlightAware
01:34AM 7.2310 -72.2330 103° East 496 571 33,000  Level FlightAware
01:36AM 7.0322 -72.0728 141° Southeast  Level Estimated
01:37AM 6.9285 -71.9893 141° Southeast  Level Estimated
01:38AM 6.8247 -71.9058 141° Southeast  Level Estimated
01:39AM 6.7210 -71.8223 141° Southeast  Level Estimated
01:40AM 6.6172 -71.7389 141° Southeast  Level Estimated
01:41AM 6.5134 -71.6555 141° Southeast  Level Estimated
01:42AM 6.4096 -71.5722 141° Southeast  Level Estimated
01:43AM 6.3058 -71.4888 141° Southeast  Level Estimated
01:44AM 6.2020 -71.4055 141° Southeast  Level Estimated
01:45AM 6.0981 -71.3223 141° Southeast  Level Estimated
01:46AM 5.9943 -71.2391 141° Southeast  Level Estimated
01:47AM 5.8904 -71.1559 141° Southeast  Level Estimated
01:48AM 5.7865 -71.0727 141° Southeast  Level Estimated
01:49AM 5.6827 -70.9896 141° Southeast  Level Estimated
01:50AM 5.5788 -70.9065 141° Southeast  Level Estimated
01:51AM 5.4748 -70.8234 141° Southeast  Level Estimated
01:52AM 5.3709 -70.7404 141° Southeast  Level Estimated
01:53AM 5.2670 -70.6574 142° Southeast  Level Estimated
01:54AM 5.1630 -70.5744 142° Southeast  Level Estimated
01:55AM 5.0591 -70.4914 142° Southeast  Level Estimated
01:56AM 4.9551 -70.4085 142° Southeast  Level Estimated
01:57AM 4.8511 -70.3256 142° Southeast  Level Estimated
01:58AM 4.7471 -70.2427 142° Southeast  Level Estimated
01:59AM 4.6431 -70.1599 142° Southeast  Level Estimated
02:00AM 4.5391 -70.0770 142° Southeast  Level Estimated
02:01AM 4.4351 -69.9942 142° Southeast  Level Estimated
02:02AM 4.3311 -69.9115 142° Southeast  Level Estimated
02:03AM 4.2270 -69.8287 142° Southeast  Level Estimated
02:04AM 4.1230 -69.7460 142° Southeast  Level Estimated
02:05AM 4.0189 -69.6633 142° Southeast  Level Estimated
02:06AM 3.9149 -69.5806 142° Southeast  Level Estimated
02:07AM 3.8108 -69.4979 142° Southeast  Level Estimated
02:08AM 3.7067 -69.4152 142° Southeast  Level Estimated
02:09AM 3.6026 -69.3326 142° Southeast  Level Estimated
02:10AM 3.4985 -69.2500 142° Southeast  Level Estimated
02:11AM 3.3944 -69.1674 142° Southeast  Level Estimated
02:12AM 3.2903 -69.0848 142° Southeast  Level Estimated
02:13AM 3.1862 -69.0023 142° Southeast  Level Estimated
02:14AM 3.0821 -68.9197 142° Southeast  Level Estimated
02:15AM 2.9780 -68.8372 142° Southeast  Level Estimated
02:16AM 2.8742 -68.7550 142° Southeast  Level Estimated
02:17AM 2.7704 -68.6728 142° Southeast  Level Estimated
02:18AM 2.6667 -68.5906 142° Southeast  Level Estimated
02:19AM 2.5629 -68.5084 142° Southeast  Level Estimated
02:20AM 2.4591 -68.4262 142° Southeast  Level Estimated
02:21AM 2.3553 -68.3441 142° Southeast  Level Estimated
02:22AM 2.2515 -68.2619 142° Southeast  Level Estimated
02:23AM 2.1477 -68.1798 142° Southeast  Level Estimated
02:24AM 2.0439 -68.0977 142° Southeast  Level Estimated
02:25AM 1.9401 -68.0156 142° Southeast  Level Estimated
02:26AM 1.8363 -67.9335 142° Southeast  Level Estimated
02:27AM 1.7324 -67.8514 142° Southeast  Level Estimated
02:28AM 1.6286 -67.7694 142° Southeast  Level Estimated
02:29AM 1.5248 -67.6873 142° Southeast  Level Estimated
02:30AM 1.4210 -67.6052 142° Southeast  Level Estimated
02:31AM 1.3171 -67.5232 142° Southeast  Level Estimated
02:32AM 1.2133 -67.4411 142° Southeast  Level Estimated
02:33AM 1.1095 -67.3591 142° Southeast  Level Estimated
02:34AM 1.0056 -67.2771 142° Southeast  Level Estimated
02:35AM 0.9018 -67.1950 142° Southeast  Level Estimated
02:36AM 0.7980 -67.1130 142° Southeast  Level Estimated
02:37AM 0.6941 -67.0310 142° Southeast  Level Estimated
02:38AM 0.5903 -66.9490 142° Southeast  Level Estimated
02:39AM 0.4864 -66.8670 142° Southeast  Level Estimated
02:40AM 0.3826 -66.7850 142° Southeast  Level Estimated
02:41AM 0.2787 -66.7029 142° Southeast  Level Estimated
02:42AM 0.1749 -66.6209 142° Southeast  Level Estimated
02:43AM 0.0710 -66.5389 142° Southeast  Level Estimated
02:44AM -0.0328 -66.4569 142° Southeast  Level Estimated
02:45AM -0.1367 -66.3749 142° Southeast  Level Estimated
02:46AM -0.2405 -66.2929 142° Southeast  Level Estimated
02:47AM -0.3444 -66.2109 142° Southeast  Level Estimated
02:48AM -0.4482 -66.1289 142° Southeast  Level Estimated
02:49AM -0.5521 -66.0469 142° Southeast  Level Estimated
02:50AM -0.6559 -65.9649 142° Southeast  Level Estimated
02:51AM -0.7598 -65.8828 142° Southeast  Level Estimated
02:52AM -0.8636 -65.8008 142° Southeast  Level Estimated
02:53AM -0.9675 -65.7188 142° Southeast  Level Estimated
02:54AM -1.0713 -65.6367 142° Southeast  Level Estimated
02:55AM -1.1751 -65.5547 142° Southeast  Level Estimated
02:56AM -1.2790 -65.4727 142° Southeast  Level Estimated
02:57AM -1.3828 -65.3906 142° Southeast  Level Estimated
02:58AM -1.4866 -65.3086 142° Southeast  Level Estimated
02:59AM -1.5905 -65.2265 142° Southeast  Level Estimated
03:00AM -1.6943 -65.1444 142° Southeast  Level Estimated
03:01AM -1.7981 -65.0623 142° Southeast  Level Estimated
03:02AM -1.9019 -64.9803 142° Southeast  Level Estimated
03:03AM -2.0057 -64.8982 142° Southeast  Level Estimated
03:04AM -2.1097 -64.8159 142° Southeast  Level Estimated
03:05AM -2.2137 -64.7336 142° Southeast  Level Estimated
03:06AM -2.3177 -64.6514 142° Southeast  Level Estimated
03:07AM -2.4217 -64.5691 142° Southeast  Level Estimated
03:08AM -2.5256 -64.4868 142° Southeast  Level Estimated
03:09AM -2.6296 -64.4044 142° Southeast  Level Estimated
03:10AM -2.7336 -64.3221 142° Southeast  Level Estimated
03:11AM -2.8375 -64.2398 142° Southeast  Level Estimated
03:12AM -2.9415 -64.1574 142° Southeast  Level Estimated
03:13AM -3.0454 -64.0750 142° Southeast  Level Estimated
03:14AM -3.1494 -63.9926 142° Southeast  Level Estimated
03:15AM -3.2533 -63.9102 142° Southeast  Level Estimated
03:16AM -3.3572 -63.8278 142° Southeast  Level Estimated
03:17AM -3.4611 -63.7454 142° Southeast  Level Estimated
03:18AM -3.5651 -63.6629 142° Southeast  Level Estimated
03:19AM -3.6690 -63.5804 142° Southeast  Level Estimated
03:20AM -3.7729 -63.4979 142° Southeast  Level Estimated
03:21AM -3.8767 -63.4154 142° Southeast  Level Estimated
03:22AM -3.9806 -63.3329 142° Southeast  Level Estimated
03:23AM -4.0845 -63.2503 142° Southeast  Level Estimated
03:24AM -4.1884 -63.1677 142° Southeast  Level Estimated
03:25AM -4.2922 -63.0851 142° Southeast  Level Estimated
03:26AM -4.3961 -63.0025 142° Southeast  Level Estimated
03:27AM -4.4999 -62.9198 142° Southeast  Level Estimated
03:28AM -4.6037 -62.8372 142° Southeast  Level Estimated
03:29AM -4.7076 -62.7545 142° Southeast  Level Estimated
03:30AM -4.8114 -62.6718 142° Southeast  Level Estimated
03:31AM -4.9152 -62.5890 142° Southeast  Level Estimated
03:32AM -5.0190 -62.5062 142° Southeast  Level Estimated
03:33AM -5.1227 -62.4234 142° Southeast  Level Estimated
03:34AM -5.2265 -62.3406 142° Southeast  Level Estimated
03:35AM -5.3306 -62.2575 142° Southeast  Level Estimated
03:36AM -5.4348 -62.1743 142° Southeast  Level Estimated
03:37AM -5.5389 -62.0911 141° Southeast  Level Estimated
03:38AM -5.6430 -62.0079 141° Southeast  Level Estimated
03:39AM -5.7470 -61.9246 141° Southeast  Level Estimated
03:40AM -5.8511 -61.8413 141° Southeast  Level Estimated
03:41AM -5.9552 -61.7580 141° Southeast  Level Estimated
03:42AM -6.0592 -61.6746 141° Southeast  Level Estimated
03:43AM -6.1632 -61.5912 141° Southeast  Level Estimated
03:44AM -6.2673 -61.5078 141° Southeast  Level Estimated
03:45AM -6.3713 -61.4244 141° Southeast  Level Estimated
03:46AM -6.4752 -61.3409 141° Southeast  Level Estimated
03:47AM -6.5792 -61.2574 141° Southeast  Level Estimated
03:48AM -6.6832 -61.1738 141° Southeast  Level Estimated
03:49AM -6.7871 -61.0902 141° Southeast  Level Estimated
03:50AM -6.8911 -61.0066 141° Southeast  Level Estimated
03:51AM -6.9950 -60.9229 141° Southeast  Level Estimated
03:52AM -7.0987 -60.8394 141° Southeast  Level Estimated
03:53AM -7.2024 -60.7558 141° Southeast  Level Estimated
03:54AM -7.3061 -60.6721 141° Southeast  Level Estimated
03:55AM -7.4098 -60.5885 141° Southeast  Level Estimated
03:56AM -7.5135 -60.5047 141° Southeast  Level Estimated
03:57AM -7.6171 -60.4210 141° Southeast  Level Estimated
03:58AM -7.7207 -60.3372 141° Southeast  Level Estimated
03:59AM -7.8243 -60.2534 141° Southeast  Level Estimated
04:00AM -7.9279 -60.1695 141° Southeast  Level Estimated
04:01AM -8.0315 -60.0856 141° Southeast  Level Estimated
04:02AM -8.1351 -60.0016 141° Southeast  Level Estimated
04:03AM -8.2386 -59.9176 141° Southeast  Level Estimated
04:04AM -8.3421 -59.8336 141° Southeast  Level Estimated
04:05AM -8.4457 -59.7495 141° Southeast  Level Estimated
04:06AM -8.5491 -59.6654 141° Southeast  Level Estimated
04:07AM -8.6526 -59.5812 141° Southeast  Level Estimated
04:08AM -8.7561 -59.4970 141° Southeast  Level Estimated
04:09AM -8.8595 -59.4127 141° Southeast  Level Estimated
04:10AM -8.9629 -59.3284 141° Southeast  Level Estimated
04:11AM -9.0663 -59.2440 141° Southeast  Level Estimated
04:12AM -9.1699 -59.1594 141° Southeast  Level Estimated
04:13AM -9.2734 -59.0748 141° Southeast  Level Estimated
04:14AM -9.3769 -58.9902 141° Southeast  Level Estimated
04:15AM -9.4804 -58.9054 141° Southeast  Level Estimated
04:16AM -9.5839 -58.8207 141° Southeast  Level Estimated
04:17AM -9.6874 -58.7358 141° Southeast  Level Estimated
04:18AM -9.7908 -58.6510 141° Southeast  Level Estimated
04:19AM -9.8942 -58.5660 141° Southeast  Level Estimated
04:20AM -9.9976 -58.4811 141° Southeast  Level Estimated
04:21AM -10.1010 -58.3960 141° Southeast  Level Estimated
04:22AM -10.2044 -58.3109 141° Southeast  Level Estimated
04:23AM -10.3077 -58.2258 141° Southeast  Level Estimated
04:24AM -10.4110 -58.1406 141° Southeast  Level Estimated
04:25AM -10.5143 -58.0553 141° Southeast  Level Estimated
04:26AM -10.6176 -57.9700 141° Southeast  Level Estimated
04:27AM -10.7208 -57.8847 141° Southeast  Level Estimated
04:28AM -10.8240 -57.7992 141° Southeast  Level Estimated
04:29AM -10.9272 -57.7137 141° Southeast  Level Estimated
04:30AM -11.0304 -57.6282 141° Southeast  Level Estimated
04:31AM -11.1336 -57.5426 141° Southeast  Level Estimated
04:32AM -11.2367 -57.4569 141° Southeast  Level Estimated
04:33AM -11.3398 -57.3712 141° Southeast  Level Estimated
04:34AM -11.4429 -57.2854 141° Southeast  Level Estimated
04:35AM -11.5459 -57.1995 141° Southeast  Level Estimated
04:36AM -11.6489 -57.1136 141° Southeast  Level Estimated
04:37AM -11.7519 -57.0276 141° Southeast  Level Estimated
04:38AM -11.8549 -56.9416 141° Southeast  Level Estimated
04:39AM -11.9579 -56.8555 141° Southeast  Level Estimated
04:40AM -12.0608 -56.7693 141° Southeast  Level Estimated
04:41AM -12.1637 -56.6831 141° Southeast  Level Estimated
04:42AM -12.2665 -56.5968 141° Southeast  Level Estimated
04:43AM -12.3694 -56.5104 141° Southeast  Level Estimated
04:44AM -12.4722 -56.4240 141° Southeast  Level Estimated
04:45AM -12.5750 -56.3374 141° Southeast  Level Estimated
04:46AM -12.6777 -56.2509 141° Southeast  Level Estimated
04:47AM -12.7805 -56.1642 141° Southeast  Level Estimated
04:48AM -12.8832 -56.0775 141° Southeast  Level Estimated
04:49AM -12.9858 -55.9907 141° Southeast  Level Estimated
04:50AM -13.0885 -55.9039 141° Southeast  Level Estimated
04:51AM -13.1911 -55.8169 140° Southeast  Level Estimated
04:52AM -13.2937 -55.7299 140° Southeast  Level Estimated
04:53AM -13.3962 -55.6428 140° Southeast  Level Estimated
04:54AM -13.4988 -55.5557 140° Southeast  Level Estimated
04:55AM -13.6013 -55.4684 140° Southeast  Level Estimated
04:56AM -13.7037 -55.3811 140° Southeast  Level Estimated
04:57AM -13.8062 -55.2937 140° Southeast  Level Estimated
04:58AM -13.9086 -55.2063 140° Southeast  Level Estimated
04:59AM -14.0110 -55.1187 140° Southeast  Level Estimated
05:00AM -14.1133 -55.0311 140° Southeast  Level Estimated
05:01AM -14.2156 -54.9434 140° Southeast  Level Estimated
05:02AM -14.3179 -54.8557 140° Southeast  Level Estimated
05:03AM -14.4201 -54.7678 140° Southeast  Level Estimated
05:04AM -14.5223 -54.6799 140° Southeast  Level Estimated
05:05AM -14.6245 -54.5919 140° Southeast  Level Estimated
05:06AM -14.7267 -54.5037 140° Southeast  Level Estimated
05:07AM -14.8288 -54.4156 140° Southeast  Level Estimated
05:08AM -14.9309 -54.3273 140° Southeast  Level Estimated
05:09AM -15.0329 -54.2390 140° Southeast  Level Estimated
05:10AM -15.1349 -54.1505 140° Southeast  Level Estimated
05:11AM -15.2369 -54.0620 140° Southeast  Level Estimated
05:12AM -15.3388 -53.9734 140° Southeast  Level Estimated
05:13AM -15.4408 -53.8847 140° Southeast  Level Estimated
05:14AM -15.5426 -53.7959 140° Southeast  Level Estimated
05:15AM -15.6445 -53.7071 140° Southeast  Level Estimated
05:16AM -15.7463 -53.6181 140° Southeast  Level Estimated
05:17AM -15.8480 -53.5291 140° Southeast  Level Estimated
05:18AM -15.9498 -53.4399 140° Southeast  Level Estimated
05:19AM -16.0515 -53.3507 140° Southeast  Level Estimated
05:20AM -16.1531 -53.2614 140° Southeast  Level Estimated
05:21AM -16.2547 -53.1720 140° Southeast  Level Estimated
05:22AM -16.3563 -53.0825 140° Southeast  Level Estimated
05:23AM -16.4578 -52.9929 140° Southeast  Level Estimated
05:24AM -16.5594 -52.9032 140° Southeast  Level Estimated
05:25AM -16.6608 -52.8134 140° Southeast  Level Estimated
05:26AM -16.7623 -52.7236 140° Southeast  Level Estimated
05:27AM -16.8636 -52.6336 140° Southeast  Level Estimated
05:28AM -16.9650 -52.5435 140° Southeast  Level Estimated
05:29AM -17.0663 -52.4534 140° Southeast  Level Estimated
05:30AM -17.1676 -52.3631 140° Southeast  Level Estimated
05:31AM -17.2688 -52.2728 140° Southeast  Level Estimated
05:31AM -18.7610 -50.9310 140° Southeast 516 594 37,000  Level FlightAware
05:32AM -17.3700 -52.1823 140° Southeast  Level Estimated
05:32AM -18.8130 -50.8740 134° Southeast 516 594 37,000  Level FlightAware
05:33AM -18.8980 -50.7820 134° Southeast 516 594 37,000  Level FlightAware
05:33AM -18.9500 -50.7250 134° Southeast 516 594 37,000  Level FlightAware
05:34AM -19.0230 -50.6460 134° Southeast 520 598 37,000  Level FlightAware
05:34AM -19.0770 -50.5870 134° Southeast 521 600 37,000  Level FlightAware
05:35AM -19.1380 -50.5200 134° Southeast 522 601 37,000  Level FlightAware
05:36AM -19.1980 -50.4540 134° Southeast 522 601 37,000  Level FlightAware
05:36AM -19.2530 -50.3940 134° Southeast 522 601 37,000  Level FlightAware
05:37AM -19.3160 -50.3250 134° Southeast 524 603 37,000  Level FlightAware
05:37AM -19.3740 -50.2610 134° Southeast 525 604 37,000  Level FlightAware
05:38AM -19.4320 -50.1980 134° Southeast 525 604 37,000  Level FlightAware
05:38AM -19.4920 -50.1320 134° Southeast 525 604 37,000  Level FlightAware
05:39AM -19.5520 -50.0650 134° Southeast 524 603 37,000  Level FlightAware
05:40AM -19.6050 -50.0070 134° Southeast 523 602 37,000  Level FlightAware
05:40AM -19.6640 -49.9430 134° Southeast 522 601 37,000  Level FlightAware
05:41AM -19.7250 -49.8760 134° Southeast 522 601 37,000  Level FlightAware
05:41AM -19.7860 -49.8100 134° Southeast 522 601 37,000  Level FlightAware
05:42AM -19.8410 -49.7490 134° Southeast 522 601 37,000  Level FlightAware
05:43AM -19.9000 -49.6840 134° Southeast 523 602 37,000  Level FlightAware
05:43AM -19.9640 -49.6150 135° Southeast 522 601 37,000  Level FlightAware
05:44AM -20.0210 -49.5520 134° Southeast 522 601 37,000  Level FlightAware
05:44AM -20.0750 -49.4930 134° Southeast 523 602 37,000  Level FlightAware
05:45AM -20.1410 -49.4200 134° Southeast 523 602 37,000  Level FlightAware
05:45AM -20.1990 -49.3560 134° Southeast 522 601 37,000  Level FlightAware
05:46AM -20.2530 -49.2960 134° Southeast 521 600 37,000  Level FlightAware
05:47AM -20.3140 -49.2290 134° Southeast 522 601 37,000  Level FlightAware
05:47AM -20.3730 -49.1640 134° Southeast 522 601 37,000  Level FlightAware
05:48AM -20.4340 -49.0970 134° Southeast 522 601 37,000  Level FlightAware
05:48AM -20.4910 -49.0330 134° Southeast 523 602 37,000  Level FlightAware
05:49AM -20.5490 -48.9690 134° Southeast 522 601 37,000  Level FlightAware
05:50AM -20.6100 -48.9000 133° Southeast 523 602 37,000  Level FlightAware
05:50AM -20.6630 -48.8420 134° Southeast 521 600 37,000  Level FlightAware
05:51AM -20.7220 -48.7760 134° Southeast 521 600 37,000  Level FlightAware
05:51AM -20.7840 -48.7070 134° Southeast 519 597 37,000  Level FlightAware
05:52AM -20.8450 -48.6380 133° Southeast 519 597 37,000  Level FlightAware
05:52AM -20.8980 -48.5790 134° Southeast 519 597 37,000  Level FlightAware
05:53AM -20.9580 -48.5110 133° Southeast 520 598 37,000  Level FlightAware
05:54AM -21.0120 -48.4510 134° Southeast 521 600 37,000  Level FlightAware
05:54AM -21.0700 -48.3850 133° Southeast 522 601 37,000  Level FlightAware
05:55AM -21.1340 -48.3130 134° Southeast 521 600 37,000  Level FlightAware
05:55AM -21.1930 -48.2460 133° Southeast 522 601 37,000  Level FlightAware
05:56AM -21.2510 -48.1810 134° Southeast 522 601 37,000  Level FlightAware
05:57AM -21.3050 -48.1190 133° Southeast 523 602 37,000  Level FlightAware
05:57AM -21.3650 -48.0520 134° Southeast 524 603 37,000  Level FlightAware
05:58AM -21.4250 -47.9840 133° Southeast 523 602 37,000  Level FlightAware
05:58AM -21.4790 -47.9220 133° Southeast 523 602 37,000  Level FlightAware
05:59AM -21.5390 -47.8540 133° Southeast 522 601 37,000  Level FlightAware
05:59AM -21.6010 -47.7840 134° Southeast 523 602 37,000  Level FlightAware
06:00AM -21.6550 -47.7230 134° Southeast 524 603 37,000  Level FlightAware
06:01AM -21.7160 -47.6530 133° Southeast 524 603 37,000  Level FlightAware
06:01AM -21.7760 -47.5900 136° Southeast 520 598 37,000 -480 Level FlightAware
06:02AM -21.8410 -47.5370 143° Southeast 512 589 36,500 -1,980 Descending FlightAware
06:02AM -21.9110 -47.4940 150° Southeast 510 587 34,800 -3,480 Descending FlightAware
06:03AM -21.9880 -47.4490 152° Southeast 527 606 32,400 -3,600 Descending FlightAware
06:04AM -22.0600 -47.4060 151° Southeast 530 610 30,600 -2,580 Descending FlightAware
06:04AM -22.1370 -47.3600 151° Southeast 514 592 29,500 -2,100 Descending FlightAware
06:05AM -22.2110 -47.3160 151° Southeast 507 583 28,100 -2,220 Descending FlightAware
06:05AM -22.2710 -47.2810 152° Southeast 498 573 27,100 -2,040 Descending FlightAware
06:06AM -22.3490 -47.2340 151° Southeast 485 558 25,800 -2,040 Descending FlightAware
06:06AM -22.4180 -47.1930 151° Southeast 475 547 24,600 -1,920 Descending FlightAware
06:07AM -22.4890 -47.1500 151° Southeast 461 531 23,500 -2,100 Descending FlightAware
06:08AM -22.5510 -47.1140 152° Southeast 449 517 22,100 -2,520 Descending FlightAware
06:08AM -22.6120 -47.0830 155° Southeast 441 507 20,700 -2,700 Descending FlightAware
06:09AM -22.6800 -47.0540 159° South 434 499 19,100 -2,700 Descending FlightAware
06:09AM -22.7450 -47.0270 159° South 427 491 17,600 -2,340 Descending FlightAware
06:10AM -22.8140 -46.9990 159° South 416 479 16,300 -2,160 Descending FlightAware
06:11AM -22.8700 -46.9750 158° South 414 476 15,100 -2,280 Descending FlightAware
06:11AM -22.9320 -46.9480 158° South 412 474 13,800 -2,280 Descending FlightAware
06:12AM -22.9960 -46.9210 159° South 395 455 12,500 -1,560 Descending FlightAware
06:12AM -23.0570 -46.8960 159° South 353 406 11,900 -1,500 Descending FlightAware
06:13AM -23.1030 -46.8770 159° South 325 374 10,800 -1,620 Descending FlightAware
06:13AM -23.1500 -46.8570 159° South 281 323 10,100 -1,200 Descending FlightAware
06:14AM -23.1620 -46.8520 159° South 273 314 9,900 -1,200 Descending FlightAware
06:14AM -23.1910 -46.8390 158° South 251 289 9,400 -1,320 Descending FlightAware
06:14AM -23.2130 -46.8300 159° South 249 287 8,900 -1,200 Descending FlightAware
06:15AM -23.2340 -46.8210 159° South 247 284 8,600 -900 Descending FlightAware
06:15AM -23.2560 -46.8120 159° South 238 274 8,300 -780 Descending FlightAware
06:15AM -23.2750 -46.8040 159° South 230 265 8,100 -960 Descending FlightAware
06:16AM -23.3010 -46.7930 159° South 226 260 7,600 -1,200 Descending FlightAware
06:16AM -23.3210 -46.7850 160° South 228 262 7,200 -1,080 Descending FlightAware
06:16AM -23.3400 -46.7760 156° South 228 262 6,900 -300 Descending FlightAware
06:17AM -23.3600 -46.7680 160° South 228 262 7,000 -360 Climbing FlightAware
06:17AM -23.3870 -46.7510 150° Southeast 222 255 6,600 -840 Descending FlightAware
06:18AM -23.3990 -46.7390 137° Southeast 221 254 6,400 -1,020 Descending FlightAware
06:18AM -23.4190 -46.7190 137° Southeast 218 251 5,900 -1,140 Descending FlightAware
06:18AM -23.4330 -46.7060 140° Southeast 225 259 5,600 -720 Descending FlightAware
06:19AM -23.4460 -46.6910 133° Southeast 228 262 5,500 -420 Descending FlightAware
06:19AM -23.4530 -46.6810 127° Southeast 220 253 5,400 -960 Descending FlightAware
06:19AM -23.4620 -46.6600 115° Southeast 211 243 5,000 -960 Descending FlightAware
06:20AM -23.4710 -46.6390 115° Southeast 194 223 4,700 -840 Descending FlightAware
06:20AM -23.4740 -46.6270 105° East 184 212 4,500 -780 Descending FlightAware
06:20AM -23.4740 -46.6230 90° East 184 212 4,500 -240 Level FlightAware
06:20AM -23.4700 -46.6020 78° East 170 196 4,400 -540 Descending FlightAware
06:21AM -23.4650 -46.5860 71° East 157 181 4,100 -900 Descending FlightAware
06:21AM -23.4610 -46.5710 74° East 146 168 3,800 -900 Descending FlightAware
06:21AM -23.4590 -46.5600 79° East 141 162 3,600 -720 Descending FlightAware
06:22AM -23.4550 -46.5460 73° East 141 162 3,400 -720 Descending FlightAware
06:22AM -23.4510 -46.5330 71° East 144 166 3,100 -840 Descending FlightAware
06:22AM -23.4480 -46.5210 75° East 142 163 2,900 -660 Descending FlightAware
06:22AM -23.4440 -46.5080 71° East 140 161 2,700 -720 Descending FlightAware
06:23AM -23.4400 -46.4910 76° East 138 159 2,400 -840 Descending FlightAware
06:23AM -23.4360 -46.4780 71° East 110 127 -7,200 Descending FlightAware
06:24AM -23.4330 -46.4650 76° East 105 121  Level FlightAware